Virtual Norwegian is not affiliated with Norwegian Air Shuttle in any way.
If you are looking for the real "Norwegian", or you wish to book Norwegian flights, please visit Norwegian.com


We use cookies to ensure you get the best experience on our website.   ACCEPT

KMCO - MCO - Orlando (Orlando Intl)

General Info Alternate Airport
ICAO: KMCO Elevation: 96 ft ICAO: KFLL
IATA: MCO Country: United States IATA: FLL
City: Orlando Charts: Log in to view charts City: Fort Lauderdale
Name: Orlando Intl Hub: No Name Fort Lauderdale Hollywood Intl
General Info
ICAO: KMCO
IATA: MCO
City: Orlando
Name: Orlando Intl
Elevation: 96 ft
Country: United States
Charts: Log in to view charts
Hub: No
 
Alternate Airport
ICAO: KFLL
IATA: FLL
City: Fort Lauderdale
Name: Fort Lauderdale Hollywood Intl

Weather
262353Z 06011KT 10SM FEW060 FEW120 FEW250 31/21 A3006 RMK AO2 SLP177 60000 T03110211 10361 20311 53002
Weather
262353Z 06011KT 10SM FEW060 FEW120 FEW250 31/21 A3006 RMK AO2 SLP177 60000 T03110211 10361 20311 53002

NOTAMs
NOTAMs currently unavailable.
NOTAMs
NOTAMs currently unavailable

Route map
Airport
Airport (hub)